sensor_id;sensor_type;location;lat;lon;timestamp;pressure;altitude;pressure_sealevel;temperature;humidity
48790;BME280;41718;51.980;5.734;2022-09-06T00:02:34;101467.63;;;19.72;100.00
48790;BME280;41718;51.980;5.734;2022-09-06T00:07:36;101464.44;;;19.44;100.00
48790;BME280;41718;51.980;5.734;2022-09-06T00:12:37;101467.94;;;19.43;100.00
48790;BME280;41718;51.980;5.734;2022-09-06T00:17:39;101472.31;;;19.44;100.00
48790;BME280;41718;51.980;5.734;2022-09-06T00:22:40;101457.50;;;19.39;100.00
48790;BME280;41718;51.980;5.734;2022-09-06T00:27:42;101447.34;;;19.10;100.00
48790;BME280;41718;51.980;5.734;2022-09-06T00:32:43;101464.19;;;18.86;100.00
48790;BME280;41718;51.980;5.734;2022-09-06T00:37:45;101469.53;;;18.72;100.00
48790;BME280;41718;51.980;5.734;2022-09-06T00:42:46;101482.63;;;18.76;100.00
48790;BME280;41718;51.980;5.734;2022-09-06T00:47:48;101487.00;;;18.74;100.00
48790;BME280;41718;51.980;5.734;2022-09-06T00:52:49;101478.47;;;18.49;100.00
48790;BME280;41718;51.980;5.734;2022-09-06T00:57:52;101508.16;;;18.47;100.00
48790;BME280;41718;51.980;5.734;2022-09-06T01:02:54;101511.75;;;18.32;100.00
48790;BME280;41718;51.980;5.734;2022-09-06T01:18:35;101606.94;;;18.36;100.00
48790;BME280;41718;51.980;5.734;2022-09-06T01:23:46;101599.88;;;18.48;100.00
48790;BME280;41718;51.980;5.734;2022-09-06T01:28:52;101600.81;;;18.40;100.00
48790;BME280;41718;51.980;5.734;2022-09-06T01:34:09;101591.22;;;18.31;100.00
48790;BME280;41718;51.980;5.734;2022-09-06T01:39:27;101580.75;;;18.33;100.00
48790;BME280;41718;51.980;5.734;2022-09-06T01:44:29;101565.06;;;18.25;100.00
48790;BME280;41718;51.980;5.734;2022-09-06T01:59:53;101518.75;;;18.33;100.00
48790;BME280;41718;51.980;5.734;2022-09-06T02:05:02;101495.13;;;18.36;100.00
48790;BME280;41718;51.980;5.734;2022-09-06T02:10:18;101473.44;;;18.14;100.00
48790;BME280;41718;51.980;5.734;2022-09-06T02:15:31;101449.84;;;18.19;100.00
48790;BME280;41718;51.980;5.734;2022-09-06T02:20:35;101433.31;;;18.12;100.00
48790;BME280;41718;51.980;5.734;2022-09-06T02:25:41;101397.59;;;18.02;100.00
48790;BME280;41718;51.980;5.734;2022-09-06T02:30:45;101382.78;;;17.96;100.00
48790;BME280;41718;51.980;5.734;2022-09-06T02:35:51;101352.25;;;17.98;100.00
48790;BME280;41718;51.980;5.734;2022-09-06T02:40:53;101374.91;;;17.99;100.00
48790;BME280;41718;51.980;5.734;2022-09-06T02:45:56;101376.72;;;17.93;100.00
48790;BME280;41718;51.980;5.734;2022-09-06T02:51:00;101369.69;;;17.99;100.00
48790;BME280;41718;51.980;5.734;2022-09-06T02:56:02;101368.78;;;18.00;100.00
48790;BME280;41718;51.980;5.734;2022-09-06T03:01:04;101348.75;;;17.95;100.00
48790;BME280;41718;51.980;5.734;2022-09-06T03:06:06;101354.00;;;17.95;100.00
48790;BME280;41718;51.980;5.734;2022-09-06T03:11:07;101355.88;;;17.76;100.00
48790;BME280;41718;51.980;5.734;2022-09-06T03:16:08;101351.47;;;17.80;100.00
48790;BME280;41718;51.980;5.734;2022-09-06T03:21:10;101348.88;;;17.81;100.00
48790;BME280;41718;51.980;5.734;2022-09-06T03:26:11;101355.88;;;17.74;100.00
48790;BME280;41718;51.980;5.734;2022-09-06T03:31:13;101350.72;;;17.59;100.00
48790;BME280;41718;51.980;5.734;2022-09-06T03:36:14;101368.19;;;17.53;100.00
48790;BME280;41718;51.980;5.734;2022-09-06T03:41:16;101360.31;;;17.60;100.00
48790;BME280;41718;51.980;5.734;2022-09-06T03:46:17;101358.53;;;17.67;100.00
48790;BME280;41718;51.980;5.734;2022-09-06T03:51:18;101363.78;;;17.62;100.00
48790;BME280;41718;51.980;5.734;2022-09-06T03:56:21;101372.47;;;17.67;100.00
48790;BME280;41718;51.980;5.734;2022-09-06T04:01:22;101402.09;;;17.82;100.00
48790;BME280;41718;51.980;5.734;2022-09-06T04:06:24;101394.31;;;17.65;100.00
48790;BME280;41718;51.980;5.734;2022-09-06T04:11:25;101384.69;;;17.73;100.00
48790;BME280;41718;51.980;5.734;2022-09-06T04:16:26;101398.69;;;17.61;100.00
48790;BME280;41718;51.980;5.734;2022-09-06T04:21:28;101396.91;;;17.63;100.00
48790;BME280;41718;51.980;5.734;2022-09-06T04:26:30;101395.16;;;17.67;100.00
48790;BME280;41718;51.980;5.734;2022-09-06T04:31:31;101391.75;;;17.54;100.00
48790;BME280;41718;51.980;5.734;2022-09-06T04:36:33;101390.81;;;17.63;100.00
48790;BME280;41718;51.980;5.734;2022-09-06T04:41:34;101394.31;;;17.65;100.00
48790;BME280;41718;51.980;5.734;2022-09-06T04:46:35;101396.03;;;17.63;100.00
48790;BME280;41718;51.980;5.734;2022-09-06T04:51:37;101397.78;;;17.67;100.00
48790;BME280;41718;51.980;5.734;2022-09-06T04:56:39;101402.16;;;17.63;100.00
48790;BME280;41718;51.980;5.734;2022-09-06T05:01:41;101409.19;;;17.52;100.00
48790;BME280;41718;51.980;5.734;2022-09-06T05:06:42;101414.47;;;17.43;100.00
48790;BME280;41718;51.980;5.734;2022-09-06T05:11:44;101415.41;;;17.17;100.00
48790;BME280;41718;51.980;5.734;2022-09-06T05:16:46;101430.22;;;17.18;100.00
48790;BME280;41718;51.980;5.734;2022-09-06T05:21:49;101431.16;;;17.04;100.00
48790;BME280;41718;51.980;5.734;2022-09-06T05:26:51;101432.91;;;17.08;100.00
48790;BME280;41718;51.980;5.734;2022-09-06T05:31:52;101439.84;;;17.15;100.00
48790;BME280;41718;51.980;5.734;2022-09-06T05:36:54;101451.19;;;17.15;100.00
48790;BME280;41718;51.980;5.734;2022-09-06T05:41:55;101465.13;;;17.10;100.00
48790;BME280;41718;51.980;5.734;2022-09-06T05:46:57;101486.06;;;16.93;100.00
48790;BME280;41718;51.980;5.734;2022-09-06T05:51:58;101482.59;;;17.03;100.00
48790;BME280;41718;51.980;5.734;2022-09-06T05:56:59;101484.28;;;17.07;100.00
48790;BME280;41718;51.980;5.734;2022-09-06T06:02:01;101490.41;;;17.11;100.00
48790;BME280;41718;51.980;5.734;2022-09-06T06:07:07;101493.88;;;17.11;100.00
48790;BME280;41718;51.980;5.734;2022-09-06T06:12:08;101501.72;;;17.20;100.00
48790;BME280;41718;51.980;5.734;2022-09-06T06:17:10;101506.03;;;17.35;100.00
48790;BME280;41718;51.980;5.734;2022-09-06T06:22:11;101497.28;;;17.50;100.00
48790;BME280;41718;51.980;5.734;2022-09-06T06:27:13;101492.88;;;17.66;100.00
48790;BME280;41718;51.980;5.734;2022-09-06T06:32:14;101488.44;;;17.88;100.00
48790;BME280;41718;51.980;5.734;2022-09-06T06:37:16;101470.88;;;18.10;100.00
48790;BME280;41718;51.980;5.734;2022-09-06T06:42:20;101468.09;;;18.33;100.00
48790;BME280;41718;51.980;5.734;2022-09-06T06:47:22;101456.47;;;18.64;100.00
48790;BME280;41718;51.980;5.734;2022-09-06T06:52:23;101423.75;;;19.08;100.00
48790;BME280;41718;51.980;5.734;2022-09-06T06:57:25;101419.31;;;19.15;100.00
48790;BME280;41718;51.980;5.734;2022-09-06T07:02:27;101414.50;;;18.70;100.00
48790;BME280;41718;51.980;5.734;2022-09-06T07:07:30;101416.81;;;19.02;100.00
48790;BME280;41718;51.980;5.734;2022-09-06T07:12:35;101399.81;;;19.34;100.00
48790;BME280;41718;51.980;5.734;2022-09-06T07:17:37;101405.69;;;19.54;100.00
48790;BME280;41718;51.980;5.734;2022-09-06T07:22:38;101394.00;;;19.80;100.00
48790;BME280;41718;51.980;5.734;2022-09-06T07:27:40;101378.72;;;20.06;100.00
48790;BME280;41718;51.980;5.734;2022-09-06T07:32:48;101383.28;;;19.94;100.00
48790;BME280;41718;51.980;5.734;2022-09-06T07:37:53;101381.03;;;20.26;100.00
48790;BME280;41718;51.980;5.734;2022-09-06T07:42:55;101382.59;;;19.82;100.00
48790;BME280;41718;51.980;5.734;2022-09-06T07:47:57;101395.50;;;19.98;100.00
48790;BME280;41718;51.980;5.734;2022-09-06T07:53:03;101382.41;;;20.50;100.00
48790;BME280;41718;51.980;5.734;2022-09-06T07:58:05;101387.75;;;20.43;100.00
48790;BME280;41718;51.980;5.734;2022-09-06T08:03:06;101389.84;;;20.75;100.00
48790;BME280;41718;51.980;5.734;2022-09-06T08:08:07;101390.13;;;21.04;100.00
48790;BME280;41718;51.980;5.734;2022-09-06T08:13:29;101374.00;;;21.21;100.00
48790;BME280;41718;51.980;5.734;2022-09-06T08:18:30;101379.06;;;20.87;100.00
48790;BME280;41718;51.980;5.734;2022-09-06T08:23:32;101379.44;;;21.13;100.00
48790;BME280;41718;51.980;5.734;2022-09-06T08:28:33;101362.63;;;21.62;100.00
48790;BME280;41718;51.980;5.734;2022-09-06T08:33:35;101373.50;;;21.47;100.00
48790;BME280;41718;51.980;5.734;2022-09-06T08:38:37;101348.41;;;22.07;100.00
48790;BME280;41718;51.980;5.734;2022-09-06T08:43:45;101344.16;;;22.37;100.00
48790;BME280;41718;51.980;5.734;2022-09-06T08:48:49;101341.63;;;22.32;100.00
48790;BME280;41718;51.980;5.734;2022-09-06T08:53:50;101335.84;;;22.52;100.00
48790;BME280;41718;51.980;5.734;2022-09-06T08:59:04;101321.63;;;22.25;100.00
48790;BME280;41718;51.980;5.734;2022-09-06T09:04:11;101329.09;;;22.73;100.00
48790;BME280;41718;51.980;5.734;2022-09-06T09:09:14;101310.97;;;22.93;100.00
48790;BME280;41718;51.980;5.734;2022-09-06T09:14:20;101309.25;;;22.92;100.00
48790;BME280;41718;51.980;5.734;2022-09-06T09:19:22;101305.75;;;23.21;100.00
48790;BME280;41718;51.980;5.734;2022-09-06T09:24:23;101301.84;;;23.05;100.00
48790;BME280;41718;51.980;5.734;2022-09-06T09:29:25;101302.06;;;23.27;100.00
48790;BME280;41718;51.980;5.734;2022-09-06T09:39:35;101297.50;;;23.60;100.00
48790;BME280;41718;51.980;5.734;2022-09-06T09:44:41;101287.25;;;24.04;100.00
48790;BME280;41718;51.980;5.734;2022-09-06T09:49:43;101296.63;;;23.88;100.00
48790;BME280;41718;51.980;5.734;2022-09-06T09:54:45;101289.09;;;24.53;100.00
48790;BME280;41718;51.980;5.734;2022-09-06T10:04:59;101292.22;;;24.88;100.00
48790;BME280;41718;51.980;5.734;2022-09-06T10:10:05;101287.72;;;24.90;100.00
48790;BME280;41718;51.980;5.734;2022-09-06T10:15:08;101286.69;;;25.18;100.00
48790;BME280;41718;51.980;5.734;2022-09-06T10:20:10;101278.88;;;26.23;100.00
48790;BME280;41718;51.980;5.734;2022-09-06T10:25:16;101287.41;;;25.88;100.00
48790;BME280;41718;51.980;5.734;2022-09-06T10:30:21;101277.88;;;26.05;100.00
48790;BME280;41718;51.980;5.734;2022-09-06T10:35:23;101268.69;;;26.73;100.00
48790;BME280;41718;51.980;5.734;2022-09-06T10:40:32;101265.53;;;26.24;100.00
48790;BME280;41718;51.980;5.734;2022-09-06T10:46:00;101269.44;;;26.36;100.00
48790;BME280;41718;51.980;5.734;2022-09-06T10:51:11;101267.75;;;26.93;100.00
48790;BME280;41718;51.980;5.734;2022-09-06T10:56:24;101275.16;;;26.06;100.00
48790;BME280;41718;51.980;5.734;2022-09-06T11:01:33;101279.91;;;26.99;100.00
48790;BME280;41718;51.980;5.734;2022-09-06T11:06:42;101271.09;;;27.17;100.00
48790;BME280;41718;51.980;5.734;2022-09-06T11:11:51;101281.38;;;27.25;100.00
48790;BME280;41718;51.980;5.734;2022-09-06T11:17:00;101270.63;;;27.81;100.00
48790;BME280;41718;51.980;5.734;2022-09-06T11:22:16;101278.56;;;27.64;100.00
48790;BME280;41718;51.980;5.734;2022-09-06T11:37:40;101294.34;;;27.86;100.00
48790;BME280;41718;51.980;5.734;2022-09-06T11:47:45;101301.22;;;27.90;100.00
48790;BME280;41718;51.980;5.734;2022-09-06T11:52:49;101299.09;;;27.43;100.00
48790;BME280;41718;51.980;5.734;2022-09-06T11:57:58;101305.13;;;27.83;100.00
48790;BME280;41718;51.980;5.734;2022-09-06T12:03:00;101299.25;;;27.76;100.00
48790;BME280;41718;51.980;5.734;2022-09-06T12:08:23;101304.06;;;28.21;100.00
48790;BME280;41718;51.980;5.734;2022-09-06T12:13:47;101294.50;;;27.46;100.00
48790;BME280;41718;51.980;5.734;2022-09-06T12:18:52;101301.00;;;28.12;100.00
48790;BME280;41718;51.980;5.734;2022-09-06T12:23:54;101291.69;;;27.67;100.00
48790;BME280;41718;51.980;5.734;2022-09-06T12:28:55;101287.22;;;27.50;100.00
48790;BME280;41718;51.980;5.734;2022-09-06T12:33:58;101279.78;;;27.76;100.00
48790;BME280;41718;51.980;5.734;2022-09-06T12:39:09;101282.00;;;27.66;100.00
48790;BME280;41718;51.980;5.734;2022-09-06T12:44:12;101266.28;;;27.61;100.00
48790;BME280;41718;51.980;5.734;2022-09-06T12:49:17;101271.81;;;27.76;100.00
48790;BME280;41718;51.980;5.734;2022-09-06T12:54:20;101255.31;;;28.04;100.00
48790;BME280;41718;51.980;5.734;2022-09-06T12:59:23;101248.56;;;27.79;100.00
48790;BME280;41718;51.980;5.734;2022-09-06T13:04:39;101244.28;;;27.77;100.00
48790;BME280;41718;51.980;5.734;2022-09-06T13:09:42;101248.81;;;27.92;98.78
48790;BME280;41718;51.980;5.734;2022-09-06T13:14:44;101235.47;;;27.57;96.43
48790;BME280;41718;51.980;5.734;2022-09-06T13:19:46;101246.72;;;27.62;99.19
48790;BME280;41718;51.980;5.734;2022-09-06T13:24:54;101240.22;;;27.69;100.00
48790;BME280;41718;51.980;5.734;2022-09-06T13:30:08;101241.75;;;27.73;99.37
48790;BME280;41718;51.980;5.734;2022-09-06T13:35:10;101235.66;;;27.71;95.91
48790;BME280;41718;51.980;5.734;2022-09-06T13:40:35;101220.94;;;27.28;91.21
48790;BME280;41718;51.980;5.734;2022-09-06T13:46:07;101201.00;;;27.19;88.55
48790;BME280;41718;51.980;5.734;2022-09-06T13:51:09;101198.41;;;26.99;86.12
48790;BME280;41718;51.980;5.734;2022-09-06T13:56:10;101207.59;;;27.30;92.51
48790;BME280;41718;51.980;5.734;2022-09-06T14:01:12;101202.63;;;27.41;90.47
48790;BME280;41718;51.980;5.734;2022-09-06T14:06:14;101203.25;;;27.63;92.74
48790;BME280;41718;51.980;5.734;2022-09-06T14:11:16;101187.94;;;27.15;89.17
48790;BME280;41718;51.980;5.734;2022-09-06T14:16:17;101172.88;;;26.97;88.98
48790;BME280;41718;51.980;5.734;2022-09-06T14:21:18;101173.81;;;26.95;85.24
48790;BME280;41718;51.980;5.734;2022-09-06T14:26:20;101176.94;;;27.04;82.67
48790;BME280;41718;51.980;5.734;2022-09-06T14:31:24;101175.34;;;27.00;82.10
48790;BME280;41718;51.980;5.734;2022-09-06T14:36:27;101189.03;;;26.92;88.41
48790;BME280;41718;51.980;5.734;2022-09-06T14:41:31;101176.91;;;26.86;88.31
48790;BME280;41718;51.980;5.734;2022-09-06T14:46:33;101184.59;;;26.74;89.18
48790;BME280;41718;51.980;5.734;2022-09-06T14:51:35;101186.06;;;26.98;92.14
48790;BME280;41718;51.980;5.734;2022-09-06T14:56:39;101189.59;;;26.99;92.06
48790;BME280;41718;51.980;5.734;2022-09-06T15:01:41;101190.03;;;26.71;90.11
48790;BME280;41718;51.980;5.734;2022-09-06T15:06:42;101185.72;;;26.87;88.58
48790;BME280;41718;51.980;5.734;2022-09-06T15:11:48;101187.22;;;26.55;92.49
48790;BME280;41718;51.980;5.734;2022-09-06T15:16:51;101182.88;;;26.73;89.61
48790;BME280;41718;51.980;5.734;2022-09-06T15:21:56;101181.56;;;26.62;93.37
48790;BME280;41718;51.980;5.734;2022-09-06T15:26:58;101178.72;;;26.67;94.19
48790;BME280;41718;51.980;5.734;2022-09-06T15:31:59;101166.16;;;26.52;90.85
48790;BME280;41718;51.980;5.734;2022-09-06T15:37:01;101162.75;;;26.48;89.94
48790;BME280;41718;51.980;5.734;2022-09-06T15:42:02;101151.91;;;26.34;93.27
48790;BME280;41718;51.980;5.734;2022-09-06T15:47:04;101139.69;;;26.11;93.19
48790;BME280;41718;51.980;5.734;2022-09-06T15:52:05;101133.94;;;26.01;95.72
48790;BME280;41718;51.980;5.734;2022-09-06T15:57:09;101134.31;;;26.12;94.41
48790;BME280;41718;51.980;5.734;2022-09-06T16:02:11;101141.41;;;26.31;94.69
48790;BME280;41718;51.980;5.734;2022-09-06T16:07:13;101149.91;;;26.39;92.50
48790;BME280;41718;51.980;5.734;2022-09-06T16:12:14;101147.66;;;26.50;93.75
48790;BME280;41718;51.980;5.734;2022-09-06T16:17:15;101133.16;;;26.18;94.63
48790;BME280;41718;51.980;5.734;2022-09-06T16:22:17;101125.84;;;26.04;96.43
48790;BME280;41718;51.980;5.734;2022-09-06T16:27:18;101129.00;;;26.12;96.24
48790;BME280;41718;51.980;5.734;2022-09-06T16:32:20;101125.88;;;26.03;98.30
48790;BME280;41718;51.980;5.734;2022-09-06T16:37:21;101134.56;;;25.87;100.00
48790;BME280;41718;51.980;5.734;2022-09-06T16:42:23;101137.41;;;25.83;100.00
48790;BME280;41718;51.980;5.734;2022-09-06T16:47:24;101138.19;;;25.64;100.00
48790;BME280;41718;51.980;5.734;2022-09-06T16:52:26;101133.16;;;25.58;100.00
48790;BME280;41718;51.980;5.734;2022-09-06T16:57:27;101140.22;;;25.58;100.00
48790;BME280;41718;51.980;5.734;2022-09-06T17:02:29;101143.34;;;25.47;100.00
48790;BME280;41718;51.980;5.734;2022-09-06T17:07:31;101148.72;;;25.24;100.00
48790;BME280;41718;51.980;5.734;2022-09-06T17:12:33;101146.91;;;25.24;100.00
48790;BME280;41718;51.980;5.734;2022-09-06T17:17:34;101133.94;;;25.18;100.00
48790;BME280;41718;51.980;5.734;2022-09-06T17:22:36;101129.47;;;25.20;100.00
48790;BME280;41718;51.980;5.734;2022-09-06T17:27:37;101141.56;;;25.04;100.00
48790;BME280;41718;51.980;5.734;2022-09-06T17:32:39;101137.75;;;24.89;100.00
48790;BME280;41718;51.980;5.734;2022-09-06T17:37:40;101149.06;;;24.71;100.00
48790;BME280;41718;51.980;5.734;2022-09-06T17:42:41;101145.88;;;24.63;100.00
48790;BME280;41718;51.980;5.734;2022-09-06T17:47:43;101147.31;;;24.48;100.00
48790;BME280;41718;51.980;5.734;2022-09-06T17:52:48;101149.25;;;24.43;100.00
48790;BME280;41718;51.980;5.734;2022-09-06T17:57:51;101155.28;;;24.23;100.00
48790;BME280;41718;51.980;5.734;2022-09-06T18:02:52;101157.38;;;24.13;100.00
48790;BME280;41718;51.980;5.734;2022-09-06T18:07:54;101155.50;;;23.92;100.00
48790;BME280;41718;51.980;5.734;2022-09-06T18:12:55;101153.16;;;23.84;100.00
48790;BME280;41718;51.980;5.734;2022-09-06T18:17:57;101146.28;;;23.78;100.00
48790;BME280;41718;51.980;5.734;2022-09-06T18:22:58;101142.09;;;23.73;100.00
48790;BME280;41718;51.980;5.734;2022-09-06T18:28:00;101138.91;;;23.63;100.00
48790;BME280;41718;51.980;5.734;2022-09-06T18:33:02;101139.13;;;23.56;100.00
48790;BME280;41718;51.980;5.734;2022-09-06T18:38:03;101138.56;;;23.46;100.00
48790;BME280;41718;51.980;5.734;2022-09-06T18:43:12;101136.44;;;23.31;100.00
48790;BME280;41718;51.980;5.734;2022-09-06T18:48:15;101127.47;;;23.10;100.00
48790;BME280;41718;51.980;5.734;2022-09-06T18:53:17;101123.41;;;22.99;100.00
48790;BME280;41718;51.980;5.734;2022-09-06T18:58:21;101121.69;;;22.98;100.00
48790;BME280;41718;51.980;5.734;2022-09-06T19:03:25;101117.06;;;23.05;100.00
48790;BME280;41718;51.980;5.734;2022-09-06T19:08:27;101126.97;;;22.98;100.00
48790;BME280;41718;51.980;5.734;2022-09-06T19:13:28;101123.69;;;22.90;100.00
48790;BME280;41718;51.980;5.734;2022-09-06T19:18:30;101118.69;;;22.81;100.00
48790;BME280;41718;51.980;5.734;2022-09-06T19:23:34;101098.81;;;22.69;100.00
48790;BME280;41718;51.980;5.734;2022-09-06T19:28:36;101085.09;;;22.58;100.00
48790;BME280;41718;51.980;5.734;2022-09-06T19:33:38;101075.94;;;22.42;100.00
48790;BME280;41718;51.980;5.734;2022-09-06T19:38:40;101070.94;;;22.33;100.00
48790;BME280;41718;51.980;5.734;2022-09-06T19:44:02;101065.16;;;22.20;100.00
48790;BME280;41718;51.980;5.734;2022-09-06T19:49:06;101056.47;;;22.16;100.00
48790;BME280;41718;51.980;5.734;2022-09-06T19:54:08;101046.03;;;22.13;100.00
48790;BME280;41718;51.980;5.734;2022-09-06T19:59:10;101041.78;;;22.08;100.00
48790;BME280;41718;51.980;5.734;2022-09-06T20:04:13;101048.84;;;22.07;100.00
48790;BME280;41718;51.980;5.734;2022-09-06T20:09:15;101046.22;;;22.06;100.00
48790;BME280;41718;51.980;5.734;2022-09-06T20:14:16;101048.53;;;21.87;100.00
48790;BME280;41718;51.980;5.734;2022-09-06T20:19:18;101084.31;;;21.29;100.00
48790;BME280;41718;51.980;5.734;2022-09-06T20:24:21;101090.63;;;20.87;100.00
48790;BME280;41718;51.980;5.734;2022-09-06T20:29:23;101086.84;;;20.60;100.00
48790;BME280;41718;51.980;5.734;2022-09-06T20:34:24;101070.06;;;20.66;100.00
48790;BME280;41718;51.980;5.734;2022-09-06T20:39:26;101049.06;;;20.64;100.00
48790;BME280;41718;51.980;5.734;2022-09-06T20:44:27;101040.44;;;20.58;100.00
48790;BME280;41718;51.980;5.734;2022-09-06T20:49:29;101024.78;;;20.53;100.00
48790;BME280;41718;51.980;5.734;2022-09-06T20:54:31;101000.19;;;20.56;100.00
48790;BME280;41718;51.980;5.734;2022-09-06T20:59:33;100989.69;;;20.56;100.00
48790;BME280;41718;51.980;5.734;2022-09-06T21:04:34;100980.94;;;20.55;100.00
48790;BME280;41718;51.980;5.734;2022-09-06T21:09:35;100976.91;;;20.76;100.00
48790;BME280;41718;51.980;5.734;2022-09-06T21:14:37;100968.28;;;20.70;100.00
48790;BME280;41718;51.980;5.734;2022-09-06T21:19:39;100961.16;;;20.75;100.00
48790;BME280;41718;51.980;5.734;2022-09-06T21:24:40;100955.69;;;20.84;100.00
48790;BME280;41718;51.980;5.734;2022-09-06T21:29:41;100952.94;;;20.87;100.00
48790;BME280;41718;51.980;5.734;2022-09-06T21:34:43;100944.19;;;20.88;100.00
48790;BME280;41718;51.980;5.734;2022-09-06T21:39:44;100939.84;;;20.85;100.00
48790;BME280;41718;51.980;5.734;2022-09-06T21:44:55;100955.47;;;20.91;100.00
48790;BME280;41718;51.980;5.734;2022-09-06T21:49:56;100957.41;;;20.85;100.00
48790;BME280;41718;51.980;5.734;2022-09-06T21:54:58;100961.25;;;21.06;100.00
48790;BME280;41718;51.980;5.734;2022-09-06T21:59:59;100935.84;;;21.03;100.00
48790;BME280;41718;51.980;5.734;2022-09-06T22:05:01;100918.59;;;20.93;100.00
48790;BME280;41718;51.980;5.734;2022-09-06T22:10:07;100908.22;;;20.88;100.00
48790;BME280;41718;51.980;5.734;2022-09-06T22:15:09;100891.81;;;20.79;100.00
48790;BME280;41718;51.980;5.734;2022-09-06T22:20:10;100908.41;;;20.81;100.00
48790;BME280;41718;51.980;5.734;2022-09-06T22:25:12;100878.78;;;20.74;100.00
48790;BME280;41718;51.980;5.734;2022-09-06T22:30:13;100890.16;;;20.75;100.00
48790;BME280;41718;51.980;5.734;2022-09-06T22:35:16;100911.31;;;20.70;100.00
48790;BME280;41718;51.980;5.734;2022-09-06T22:40:17;100950.91;;;20.66;100.00
48790;BME280;41718;51.980;5.734;2022-09-06T22:45:19;101130.22;;;20.39;100.00
48790;BME280;41718;51.980;5.734;2022-09-06T22:50:21;101174.09;;;19.90;100.00
48790;BME280;41718;51.980;5.734;2022-09-06T22:55:22;101153.28;;;19.26;100.00
48790;BME280;41718;51.980;5.734;2022-09-06T23:00:24;101166.91;;;18.93;100.00
48790;BME280;41718;51.980;5.734;2022-09-06T23:05:29;101231.94;;;18.68;100.00
48790;BME280;41718;51.980;5.734;2022-09-06T23:10:31;101199.31;;;18.15;100.00
48790;BME280;41718;51.980;5.734;2022-09-06T23:15:33;101215.44;;;17.67;100.00
48790;BME280;41718;51.980;5.734;2022-09-06T23:20:35;101212.94;;;17.55;100.00
48790;BME280;41718;51.980;5.734;2022-09-06T23:25:37;101215.75;;;17.28;100.00
48790;BME280;41718;51.980;5.734;2022-09-06T23:30:39;101235.09;;;17.01;100.00
48790;BME280;41718;51.980;5.734;2022-09-06T23:35:40;101204.69;;;16.83;100.00
48790;BME280;41718;51.980;5.734;2022-09-06T23:40:43;101182.97;;;16.75;100.00
48790;BME280;41718;51.980;5.734;2022-09-06T23:45:45;101146.44;;;16.55;100.00
48790;BME280;41718;51.980;5.734;2022-09-06T23:50:46;101149.00;;;16.72;100.00
48790;BME280;41718;51.980;5.734;2022-09-06T23:55:48;101152.53;;;16.63;100.00
